sensor_id;sensor_type;location;lat;lon;timestamp;pressure;altitude;pressure_sealevel;temperature;humidity
46946;BME280;32679;40.810;14.498;2023-12-28T00:00:46;74771.41;;;9.30;100.00
46946;BME280;32679;40.810;14.498;2023-12-28T00:03:11;74783.34;;;9.40;100.00
46946;BME280;32679;40.810;14.498;2023-12-28T00:05:37;74751.13;;;9.13;100.00
46946;BME280;32679;40.810;14.498;2023-12-28T00:08:02;74767.84;;;9.27;100.00
46946;BME280;32679;40.810;14.498;2023-12-28T00:10:27;74725.25;;;8.88;100.00
46946;BME280;32679;40.810;14.498;2023-12-28T00:12:53;74759.03;;;9.15;100.00
46946;BME280;32679;40.810;14.498;2023-12-28T00:15:19;74739.19;;;9.03;100.00
46946;BME280;32679;40.810;14.498;2023-12-28T00:17:45;74743.38;;;9.06;100.00
46946;BME280;32679;40.810;14.498;2023-12-28T00:20:11;74743.13;;;9.04;100.00
46946;BME280;32679;40.810;14.498;2023-12-28T00:22:37;74745.91;;;9.04;100.00
46946;BME280;32679;40.810;14.498;2023-12-28T00:25:04;74737.41;;;9.01;100.00
46946;BME280;32679;40.810;14.498;2023-12-28T00:27:29;74733.81;;;8.98;100.00
46946;BME280;32679;40.810;14.498;2023-12-28T00:29:55;74751.13;;;9.13;100.00
46946;BME280;32679;40.810;14.498;2023-12-28T00:32:20;74754.47;;;9.13;100.00
46946;BME280;32679;40.810;14.498;2023-12-28T00:34:48;74732.03;;;8.97;100.00
46946;BME280;32679;40.810;14.498;2023-12-28T00:37:14;74723.44;;;8.87;100.00
46946;BME280;32679;40.810;14.498;2023-12-28T00:39:42;74741.34;;;9.02;100.00
46946;BME280;32679;40.810;14.498;2023-12-28T00:42:08;74721.66;;;8.85;100.00
46946;BME280;32679;40.810;14.498;2023-12-28T00:44:33;74690.66;;;8.59;100.00
46946;BME280;32679;40.810;14.498;2023-12-28T00:46:59;74709.34;;;8.77;100.00
46946;BME280;32679;40.810;14.498;2023-12-28T00:49:24;74715.91;;;8.83;100.00
46946;BME280;32679;40.810;14.498;2023-12-28T00:51:49;74712.34;;;8.80;100.00
46946;BME280;32679;40.810;14.498;2023-12-28T00:54:15;74728.44;;;8.93;100.00
46946;BME280;32679;40.810;14.498;2023-12-28T00:56:40;74703.97;;;8.73;100.00
46946;BME280;32679;40.810;14.498;2023-12-28T00:59:06;74705.19;;;8.74;100.00
46946;BME280;32679;40.810;14.498;2023-12-28T01:01:31;74720.09;;;8.86;100.00
46946;BME280;32679;40.810;14.498;2023-12-28T01:03:57;74711.75;;;8.79;100.00
46946;BME280;32679;40.810;14.498;2023-12-28T01:06:22;74724.88;;;8.90;100.00
46946;BME280;32679;40.810;14.498;2023-12-28T01:08:47;74713.16;;;8.83;100.00
46946;BME280;32679;40.810;14.498;2023-12-28T01:11:13;74724.88;;;8.90;100.00
46946;BME280;32679;40.810;14.498;2023-12-28T01:13:38;74725.25;;;8.88;100.00
46946;BME280;32679;40.810;14.498;2023-12-28T01:16:04;74721.28;;;8.87;100.00
46946;BME280;32679;40.810;14.498;2023-12-28T01:18:30;74739.19;;;9.03;100.00
46946;BME280;32679;40.810;14.498;2023-12-28T01:20:55;74741.75;;;9.00;100.00
46946;BME280;32679;40.810;14.498;2023-12-28T01:23:20;74768.19;;;9.25;100.00
46946;BME280;32679;40.810;14.498;2023-12-28T01:25:46;74756.84;;;9.15;100.00
46946;BME280;32679;40.810;14.498;2023-12-28T01:28:12;74770.00;;;9.27;100.00
46946;BME280;32679;40.810;14.498;2023-12-28T01:30:37;74768.44;;;9.28;100.00
46946;BME280;32679;40.810;14.498;2023-12-28T01:33:03;74742.53;;;9.03;100.00
46946;BME280;32679;40.810;14.498;2023-12-28T01:35:28;74730.84;;;8.96;100.00
46946;BME280;32679;40.810;14.498;2023-12-28T01:37:54;74745.53;;;9.06;100.00
46946;BME280;32679;40.810;14.498;2023-12-28T01:40:20;74737.41;;;9.01;100.00
46946;BME280;32679;40.810;14.498;2023-12-28T01:42:45;74728.59;;;8.89;100.00
46946;BME280;32679;40.810;14.498;2023-12-28T01:45:11;74751.88;;;9.09;100.00
46946;BME280;32679;40.810;14.498;2023-12-28T01:47:36;74749.94;;;9.12;100.00
46946;BME280;32679;40.810;14.498;2023-12-28T01:50:03;74750.69;;;9.08;100.00
46946;BME280;32679;40.810;14.498;2023-12-28T01:52:29;74764.25;;;9.24;100.00
46946;BME280;32679;40.810;14.498;2023-12-28T01:54:55;74760.66;;;9.21;100.00
46946;BME280;32679;40.810;14.498;2023-12-28T01:57:21;74748.38;;;9.13;100.00
46946;BME280;32679;40.810;14.498;2023-12-28T01:59:46;74726.06;;;8.91;100.00
46946;BME280;32679;40.810;14.498;2023-12-28T02:02:13;74757.47;;;9.16;100.00
46946;BME280;32679;40.810;14.498;2023-12-28T02:04:41;74757.69;;;9.18;100.00
46946;BME280;32679;40.810;14.498;2023-12-28T02:07:08;74768.00;;;9.23;100.00
46946;BME280;32679;40.810;14.498;2023-12-28T02:09:33;74727.25;;;8.92;100.00
46946;BME280;32679;40.810;14.498;2023-12-28T02:11:59;74729.03;;;8.94;100.00
46946;BME280;32679;40.810;14.498;2023-12-28T02:14:24;74726.81;;;8.87;100.00
46946;BME280;32679;40.810;14.498;2023-12-28T02:19:45;74727.03;;;8.90;100.00
46946;BME280;32679;40.810;14.498;2023-12-28T02:22:14;74708.16;;;8.76;100.00
46946;BME280;32679;40.810;14.498;2023-12-28T02:27:27;74728.38;;;8.86;100.00
46946;BME280;32679;40.810;14.498;2023-12-28T02:29:53;74742.78;;;9.06;100.00
46946;BME280;32679;40.810;14.498;2023-12-28T02:32:24;74746.50;;;9.04;100.00
46946;BME280;32679;40.810;14.498;2023-12-28T02:34:55;74732.41;;;8.95;100.00
46946;BME280;32679;40.810;14.498;2023-12-28T02:37:25;74739.94;;;8.99;100.00
46946;BME280;32679;40.810;14.498;2023-12-28T02:39:51;74743.88;;;9.00;100.00
46946;BME280;32679;40.810;14.498;2023-12-28T02:42:18;74693.84;;;8.64;100.00
46946;BME280;32679;40.810;14.498;2023-12-28T02:44:44;74709.94;;;8.78;100.00
46946;BME280;32679;40.810;14.498;2023-12-28T02:47:09;74679.53;;;8.52;100.00
46946;BME280;32679;40.810;14.498;2023-12-28T02:49:35;74661.97;;;8.34;100.00
46946;BME280;32679;40.810;14.498;2023-12-28T02:52:00;74670.59;;;8.44;100.00
46946;BME280;32679;40.810;14.498;2023-12-28T02:54:26;74672.16;;;8.43;100.00
46946;BME280;32679;40.810;14.498;2023-12-28T02:56:51;74687.06;;;8.56;100.00
46946;BME280;32679;40.810;14.498;2023-12-28T02:59:16;74679.69;;;8.47;100.00
46946;BME280;32679;40.810;14.498;2023-12-28T03:01:42;74671.19;;;8.45;100.00
46946;BME280;32679;40.810;14.498;2023-12-28T03:04:07;74682.28;;;8.52;100.00
46946;BME280;32679;40.810;14.498;2023-12-28T03:06:34;74695.03;;;8.65;100.00
46946;BME280;32679;40.810;14.498;2023-12-28T03:09:01;74719.28;;;8.83;100.00
46946;BME280;32679;40.810;14.498;2023-12-28T03:11:26;74704.56;;;8.73;100.00
46946;BME280;32679;40.810;14.498;2023-12-28T03:13:52;74711.75;;;8.79;100.00
46946;BME280;32679;40.810;14.498;2023-12-28T03:16:17;74708.53;;;8.74;100.00
46946;BME280;32679;40.810;14.498;2023-12-28T03:18:42;74701.75;;;8.66;100.00
46946;BME280;32679;40.810;14.498;2023-12-28T03:21:08;74695.63;;;8.65;100.00
46946;BME280;32679;40.810;14.498;2023-12-28T03:23:33;74687.44;;;8.54;100.00
46946;BME280;32679;40.810;14.498;2023-12-28T03:26:00;74702.94;;;8.67;100.00
46946;BME280;32679;40.810;14.498;2023-12-28T03:28:26;74687.88;;;8.59;100.00
46946;BME280;32679;40.810;14.498;2023-12-28T03:30:51;74693.03;;;8.61;100.00
46946;BME280;32679;40.810;14.498;2023-12-28T03:33:17;74693.84;;;8.64;100.00
46946;BME280;32679;40.810;14.498;2023-12-28T03:35:42;74685.03;;;8.52;100.00
46946;BME280;32679;40.810;14.498;2023-12-28T03:38:07;74713.31;;;8.78;100.00
46946;BME280;32679;40.810;14.498;2023-12-28T03:40:33;74711.75;;;8.79;100.00
46946;BME280;32679;40.810;14.498;2023-12-28T03:42:58;74748.31;;;9.06;100.00
46946;BME280;32679;40.810;14.498;2023-12-28T03:45:23;74710.91;;;8.76;100.00
46946;BME280;32679;40.810;14.498;2023-12-28T03:47:49;74744.72;;;9.03;100.00
46946;BME280;32679;40.810;14.498;2023-12-28T03:50:16;74709.34;;;8.77;100.00
46946;BME280;32679;40.810;14.498;2023-12-28T03:52:44;74696.22;;;8.66;100.00
46946;BME280;32679;40.810;14.498;2023-12-28T03:55:10;74695.63;;;8.65;100.00
46946;BME280;32679;40.810;14.498;2023-12-28T03:57:35;74681.09;;;8.51;100.00
46946;BME280;32679;40.810;14.498;2023-12-28T04:00:00;74706.97;;;8.75;100.00
46946;BME280;32679;40.810;14.498;2023-12-28T04:02:29;74698.19;;;8.63;100.00
46946;BME280;32679;40.810;14.498;2023-12-28T04:04:57;74701.59;;;8.71;100.00
46946;BME280;32679;40.810;14.498;2023-12-28T04:07:24;74667.38;;;8.39;100.00
46946;BME280;32679;40.810;14.498;2023-12-28T04:09:49;74677.97;;;8.53;100.00
46946;BME280;32679;40.810;14.498;2023-12-28T04:12:15;74652.81;;;8.24;100.00
46946;BME280;32679;40.810;14.498;2023-12-28T04:14:40;74692.66;;;8.63;100.00
46946;BME280;32679;40.810;14.498;2023-12-28T04:17:06;74671.31;;;8.40;100.00
46946;BME280;32679;40.810;14.498;2023-12-28T04:19:31;74674.91;;;8.43;100.00
46946;BME280;32679;40.810;14.498;2023-12-28T04:21:56;74669.53;;;8.38;100.00
46946;BME280;32679;40.810;14.498;2023-12-28T04:24:22;74685.03;;;8.52;100.00
46946;BME280;32679;40.810;14.498;2023-12-28T04:26:47;74656.03;;;8.29;100.00
46946;BME280;32679;40.810;14.498;2023-12-28T04:29:13;74672.16;;;8.43;100.00
46946;BME280;32679;40.810;14.498;2023-12-28T04:31:41;74652.66;;;8.29;100.00
46946;BME280;32679;40.810;14.498;2023-12-28T04:34:07;74664.16;;;8.34;100.00
46946;BME280;32679;40.810;14.498;2023-12-28T04:36:39;74675.97;;;8.49;100.00
46946;BME280;32679;40.810;14.498;2023-12-28T04:39:06;74682.91;;;8.52;100.00
46946;BME280;32679;40.810;14.498;2023-12-28T04:41:31;74660.41;;;8.35;100.00
46946;BME280;32679;40.810;14.498;2023-12-28T04:43:56;74681.22;;;8.46;100.00
46946;BME280;32679;40.810;14.498;2023-12-28T04:46:22;74691.47;;;8.62;100.00
46946;BME280;32679;40.810;14.498;2023-12-28T04:48:47;74685.13;;;8.59;100.00
46946;BME280;32679;40.810;14.498;2023-12-28T04:51:12;74676.78;;;8.52;100.00
46946;BME280;32679;40.810;14.498;2023-12-28T04:53:39;74682.53;;;8.54;100.00
46946;BME280;32679;40.810;14.498;2023-12-28T04:56:07;74686.84;;;8.53;100.00
46946;BME280;32679;40.810;14.498;2023-12-28T04:58:33;74682.28;;;8.52;100.00
46946;BME280;32679;40.810;14.498;2023-12-28T05:01:02;74686.84;;;8.53;100.00
46946;BME280;32679;40.810;14.498;2023-12-28T05:03:28;74630.25;;;8.12;100.00
46946;BME280;32679;40.810;14.498;2023-12-28T05:05:53;74665.81;;;8.40;100.00
46946;BME280;32679;40.810;14.498;2023-12-28T05:08:19;74678.34;;;8.51;100.00
46946;BME280;32679;40.810;14.498;2023-12-28T05:10:44;74681.09;;;8.51;100.00
46946;BME280;32679;40.810;14.498;2023-12-28T05:13:09;74675.97;;;8.49;100.00
46946;BME280;32679;40.810;14.498;2023-12-28T05:15:35;74671.56;;;8.43;100.00
46946;BME280;32679;40.810;14.498;2023-12-28T05:18:00;74679.53;;;8.52;100.00
46946;BME280;32679;40.810;14.498;2023-12-28T05:20:26;74692.81;;;8.58;100.00
46946;BME280;32679;40.810;14.498;2023-12-28T05:22:51;74681.69;;;8.51;100.00
46946;BME280;32679;40.810;14.498;2023-12-28T05:25:16;74659.22;;;8.34;100.00
46946;BME280;32679;40.810;14.498;2023-12-28T05:27:45;74660.41;;;8.35;100.00
46946;BME280;32679;40.810;14.498;2023-12-28T05:30:10;74665.22;;;8.39;100.00
46946;BME280;32679;40.810;14.498;2023-12-28T05:32:36;74677.16;;;8.50;100.00
46946;BME280;32679;40.810;14.498;2023-12-28T05:35:01;74658.78;;;8.29;100.00
46946;BME280;32679;40.810;14.498;2023-12-28T05:37:28;74666.41;;;8.40;100.00
46946;BME280;32679;40.810;14.498;2023-12-28T05:39:53;74659.22;;;8.34;100.00
46946;BME280;32679;40.810;14.498;2023-12-28T05:42:19;74680.50;;;8.50;100.00
46946;BME280;32679;40.810;14.498;2023-12-28T05:44:44;74651.25;;;8.25;100.00
46946;BME280;32679;40.810;14.498;2023-12-28T05:47:10;74650.44;;;8.22;100.00
46946;BME280;32679;40.810;14.498;2023-12-28T05:49:37;74680.28;;;8.48;100.00
46946;BME280;32679;40.810;14.498;2023-12-28T05:52:03;74658.19;;;8.29;100.00
46946;BME280;32679;40.810;14.498;2023-12-28T05:54:28;74662.84;;;8.37;100.00
46946;BME280;32679;40.810;14.498;2023-12-28T05:56:54;74676.31;;;8.47;100.00
46946;BME280;32679;40.810;14.498;2023-12-28T05:59:19;74692.06;;;8.62;100.00
46946;BME280;32679;40.810;14.498;2023-12-28T06:01:46;74706.53;;;8.70;100.00
46946;BME280;32679;40.810;14.498;2023-12-28T06:04:12;74680.28;;;8.48;100.00
46946;BME280;32679;40.810;14.498;2023-12-28T06:06:38;74680.75;;;8.53;100.00
46946;BME280;32679;40.810;14.498;2023-12-28T06:09:03;74697.22;;;8.64;100.00
46946;BME280;32679;40.810;14.498;2023-12-28T06:11:29;74704.97;;;8.71;100.00
46946;BME280;32679;40.810;14.498;2023-12-28T06:13:55;74718.91;;;8.85;100.00
46946;BME280;32679;40.810;14.498;2023-12-28T06:16:20;74711.13;;;8.79;100.00
46946;BME280;32679;40.810;14.498;2023-12-28T06:18:46;74719.66;;;8.81;100.00
46946;BME280;32679;40.810;14.498;2023-12-28T06:21:11;74721.66;;;8.85;100.00
46946;BME280;32679;40.810;14.498;2023-12-28T06:23:36;74732.78;;;8.92;100.00
46946;BME280;32679;40.810;14.498;2023-12-28T06:26:05;74742.78;;;9.06;100.00
46946;BME280;32679;40.810;14.498;2023-12-28T06:28:32;74769.78;;;9.24;100.00
46946;BME280;32679;40.810;14.498;2023-12-28T06:30:57;74723.69;;;8.89;100.00
46946;BME280;32679;40.810;14.498;2023-12-28T06:33:26;74743.13;;;9.04;100.00
46946;BME280;32679;40.810;14.498;2023-12-28T06:35:51;74735.59;;;9.00;100.00
46946;BME280;32679;40.810;14.498;2023-12-28T06:38:18;74746.34;;;9.09;100.00
46946;BME280;32679;40.810;14.498;2023-12-28T06:40:43;74781.34;;;9.36;100.00
46946;BME280;32679;40.810;14.498;2023-12-28T06:43:09;74827.53;;;9.78;100.00
46946;BME280;32679;40.810;14.498;2023-12-28T06:45:34;74842.00;;;9.86;100.00
46946;BME280;32679;40.810;14.498;2023-12-28T06:47:59;74885.63;;;10.23;100.00
46946;BME280;32679;40.810;14.498;2023-12-28T06:50:25;74859.16;;;10.05;100.00
46946;BME280;32679;40.810;14.498;2023-12-28T06:52:50;74861.72;;;10.03;100.00
46946;BME280;32679;40.810;14.498;2023-12-28T06:55:16;74846.63;;;9.94;100.00
46946;BME280;32679;40.810;14.498;2023-12-28T06:57:41;74844.59;;;9.90;100.00
46946;BME280;32679;40.810;14.498;2023-12-28T07:00:07;74835.66;;;9.83;100.00
46946;BME280;32679;40.810;14.498;2023-12-28T07:02:32;74822.75;;;9.74;100.00
46946;BME280;32679;40.810;14.498;2023-12-28T07:04:58;74807.81;;;9.61;100.00
46946;BME280;32679;40.810;14.498;2023-12-28T07:07:25;74826.72;;;9.75;100.00
46946;BME280;32679;40.810;14.498;2023-12-28T07:09:50;74816.78;;;9.69;100.00
46946;BME280;32679;40.810;14.498;2023-12-28T07:12:20;74859.31;;;10.01;100.00
46946;BME280;32679;40.810;14.498;2023-12-28T07:14:46;74830.28;;;9.78;100.00
46946;BME280;32679;40.810;14.498;2023-12-28T07:17:12;74813.19;;;9.66;100.00
46946;BME280;32679;40.810;14.498;2023-12-28T07:19:42;74852.47;;;10.04;100.00
46946;BME280;32679;40.810;14.498;2023-12-28T07:22:07;74864.94;;;10.08;100.00
46946;BME280;32679;40.810;14.498;2023-12-28T07:24:33;74858.97;;;10.03;100.00
46946;BME280;32679;40.810;14.498;2023-12-28T07:26:58;74825.16;;;9.76;100.00
46946;BME280;32679;40.810;14.498;2023-12-28T07:29:24;74844.84;;;9.93;100.00
46946;BME280;32679;40.810;14.498;2023-12-28T07:31:49;74907.97;;;10.44;100.00
46946;BME280;32679;40.810;14.498;2023-12-28T07:34:14;74914.75;;;10.53;100.00
46946;BME280;32679;40.810;14.498;2023-12-28T07:36:40;74905.41;;;10.47;100.00
46946;BME280;32679;40.810;14.498;2023-12-28T07:39:08;74922.66;;;10.55;100.00
46946;BME280;32679;40.810;14.498;2023-12-28T07:41:34;74929.84;;;10.61;100.00
46946;BME280;32679;40.810;14.498;2023-12-28T07:43:59;74920.72;;;10.58;100.00
46946;BME280;32679;40.810;14.498;2023-12-28T07:46:24;74933.25;;;10.68;100.00
46946;BME280;32679;40.810;14.498;2023-12-28T07:48:50;74949.25;;;10.87;100.00
46946;BME280;32679;40.810;14.498;2023-12-28T07:51:15;74973.06;;;11.00;100.00
46946;BME280;32679;40.810;14.498;2023-12-28T07:53:41;75060.13;;;11.72;100.00
46946;BME280;32679;40.810;14.498;2023-12-28T07:56:06;75077.09;;;11.89;100.00
46946;BME280;32679;40.810;14.498;2023-12-28T07:58:32;75059.00;;;11.78;100.00
46946;BME280;32679;40.810;14.498;2023-12-28T08:00:57;75045.44;;;11.69;100.00
46946;BME280;32679;40.810;14.498;2023-12-28T08:03:22;75071.78;;;11.91;100.00
46946;BME280;32679;40.810;14.498;2023-12-28T08:05:48;75085.31;;;12.00;100.00
46946;BME280;32679;40.810;14.498;2023-12-28T08:08:13;75068.34;;;11.84;100.00
46946;BME280;32679;40.810;14.498;2023-12-28T08:10:38;75091.28;;;12.05;100.00
46946;BME280;32679;40.810;14.498;2023-12-28T08:13:04;75062.34;;;11.78;100.00
46946;BME280;32679;40.810;14.498;2023-12-28T08:15:29;75049.81;;;11.68;100.00
46946;BME280;32679;40.810;14.498;2023-12-28T08:17:54;75053.75;;;11.69;100.00
46946;BME280;32679;40.810;14.498;2023-12-28T08:20:20;75036.66;;;11.57;100.00
46946;BME280;32679;40.810;14.498;2023-12-28T08:22:46;75055.78;;;11.73;100.00
46946;BME280;32679;40.810;14.498;2023-12-28T08:25:11;75135.31;;;12.41;100.00
46946;BME280;32679;40.810;14.498;2023-12-28T08:27:36;75114.00;;;12.25;100.00
46946;BME280;32679;40.810;14.498;2023-12-28T08:30:03;75090.91;;;12.07;100.00
46946;BME280;32679;40.810;14.498;2023-12-28T08:32:30;75134.13;;;12.40;100.00
46946;BME280;32679;40.810;14.498;2023-12-28T08:34:56;75106.63;;;12.16;100.00
46946;BME280;32679;40.810;14.498;2023-12-28T08:37:24;75115.00;;;12.23;100.00
46946;BME280;32679;40.810;14.498;2023-12-28T08:39:50;75119.78;;;12.27;100.00
46946;BME280;32679;40.810;14.498;2023-12-28T08:42:17;75100.03;;;12.11;100.00
46946;BME280;32679;40.810;14.498;2023-12-28T08:44:45;75132.34;;;12.38;100.00
46946;BME280;32679;40.810;14.498;2023-12-28T08:47:12;75150.88;;;12.54;100.00
46946;BME280;32679;40.810;14.498;2023-12-28T08:49:37;75169.44;;;12.70;100.00
46946;BME280;32679;40.810;14.498;2023-12-28T08:52:03;75170.63;;;12.71;100.00
46946;BME280;32679;40.810;14.498;2023-12-28T08:54:29;75111.03;;;12.22;100.00
46946;BME280;32679;40.810;14.498;2023-12-28T08:56:57;75140.53;;;12.50;99.97
46946;BME280;32679;40.810;14.498;2023-12-28T08:59:22;75161.66;;;12.63;99.53
46946;BME280;32679;40.810;14.498;2023-12-28T09:01:52;75179.59;;;12.78;100.00
46946;BME280;32679;40.810;14.498;2023-12-28T09:04:23;75184.00;;;12.84;100.00
46946;BME280;32679;40.810;14.498;2023-12-28T09:06:51;75170.84;;;12.73;99.81
46946;BME280;32679;40.810;14.498;2023-12-28T09:09:21;75204.72;;;13.00;97.41
46946;BME280;32679;40.810;14.498;2023-12-28T09:11:47;75182.19;;;12.83;97.72
46946;BME280;32679;40.810;14.498;2023-12-28T09:14:34;75181.22;;;12.84;97.06
46946;BME280;32679;40.810;14.498;2023-12-28T09:17:01;75221.47;;;13.14;96.84
46946;BME280;32679;40.810;14.498;2023-12-28T09:19:28;75232.88;;;13.24;96.53
46946;BME280;32679;40.810;14.498;2023-12-28T09:21:53;75224.09;;;13.19;95.29
46946;BME280;32679;40.810;14.498;2023-12-28T09:24:31;75224.34;;;13.21;95.12
46946;BME280;32679;40.810;14.498;2023-12-28T09:26:56;75241.47;;;13.33;95.57
46946;BME280;32679;40.810;14.498;2023-12-28T09:29:23;75247.22;;;13.36;89.23
46946;BME280;32679;40.810;14.498;2023-12-28T09:32:06;75199.56;;;12.98;89.44
46946;BME280;32679;40.810;14.498;2023-12-28T09:34:33;75225.28;;;13.20;89.03
46946;BME280;32679;40.810;14.498;2023-12-28T09:36:59;75222.66;;;13.15;90.16
46946;BME280;32679;40.810;14.498;2023-12-28T09:39:26;75231.69;;;13.23;92.42
46946;BME280;32679;40.810;14.498;2023-12-28T09:42:04;75226.72;;;13.23;93.50
46946;BME280;32679;40.810;14.498;2023-12-28T09:44:38;75251.63;;;13.42;92.77
46946;BME280;32679;40.810;14.498;2023-12-28T09:47:06;75247.06;;;13.41;93.50
46946;BME280;32679;40.810;14.498;2023-12-28T09:49:35;75265.03;;;13.56;93.55
46946;BME280;32679;40.810;14.498;2023-12-28T09:52:03;75267.81;;;13.56;93.90
46946;BME280;32679;40.810;14.498;2023-12-28T09:54:31;75245.28;;;13.39;93.48
46946;BME280;32679;40.810;14.498;2023-12-28T09:56:57;75254.03;;;13.44;93.63
46946;BME280;32679;40.810;14.498;2023-12-28T09:59:37;75270.41;;;13.60;93.46
46946;BME280;32679;40.810;14.498;2023-12-28T10:02:04;75269.59;;;13.57;93.16
46946;BME280;32679;40.810;14.498;2023-12-28T10:04:30;75279.34;;;13.61;92.59
46946;BME280;32679;40.810;14.498;2023-12-28T10:06:57;75249.03;;;13.38;91.00
46946;BME280;32679;40.810;14.498;2023-12-28T10:09:23;75250.81;;;13.39;89.51
46946;BME280;32679;40.810;14.498;2023-12-28T10:11:52;75260.03;;;13.49;90.83
46946;BME280;32679;40.810;14.498;2023-12-28T10:14:19;75253.06;;;13.46;91.33
46946;BME280;32679;40.810;14.498;2023-12-28T10:16:45;75230.84;;;13.20;91.36
46946;BME280;32679;40.810;14.498;2023-12-28T10:19:12;75231.09;;;13.22;92.05
46946;BME280;32679;40.810;14.498;2023-12-28T10:21:40;75251.63;;;13.42;90.96
46946;BME280;32679;40.810;14.498;2023-12-28T10:24:06;75231.69;;;13.23;92.92
46946;BME280;32679;40.810;14.498;2023-12-28T10:26:33;75249.63;;;13.38;92.88
46946;BME280;32679;40.810;14.498;2023-12-28T10:29:00;75236.84;;;13.25;93.58
46946;BME280;32679;40.810;14.498;2023-12-28T10:31:27;75229.50;;;13.23;93.80
46946;BME280;32679;40.810;14.498;2023-12-28T10:33:52;75224.47;;;13.17;94.33
46946;BME280;32679;40.810;14.498;2023-12-28T10:36:18;75245.44;;;13.34;95.09
46946;BME280;32679;40.810;14.498;2023-12-28T10:38:45;75252.03;;;13.40;94.95
46946;BME280;32679;40.810;14.498;2023-12-28T10:41:13;75255.63;;;13.43;95.11
46946;BME280;32679;40.810;14.498;2023-12-28T10:44:00;75267.97;;;13.51;95.12
46946;BME280;32679;40.810;14.498;2023-12-28T10:46:30;75270.56;;;13.56;94.90
46946;BME280;32679;40.810;14.498;2023-12-28T10:49:09;75266.38;;;13.52;94.95
46946;BME280;32679;40.810;14.498;2023-12-28T10:51:36;75245.88;;;13.40;94.85
46946;BME280;32679;40.810;14.498;2023-12-28T10:57:09;75261.59;;;13.48;94.89
46946;BME280;32679;40.810;14.498;2023-12-28T10:59:50;75247.81;;;13.36;94.77
46946;BME280;32679;40.810;14.498;2023-12-28T11:02:21;75232.09;;;13.28;95.43
46946;BME280;32679;40.810;14.498;2023-12-28T11:04:50;75232.03;;;13.21;95.94
46946;BME280;32679;40.810;14.498;2023-12-28T11:07:18;75242.88;;;13.37;94.59
46946;BME280;32679;40.810;14.498;2023-12-28T11:10:15;75241.25;;;13.31;95.79
46946;BME280;32679;40.810;14.498;2023-12-28T11:12:42;75229.50;;;13.23;95.52
46946;BME280;32679;40.810;14.498;2023-12-28T11:15:10;75218.69;;;13.14;95.06
46946;BME280;32679;40.810;14.498;2023-12-28T11:17:38;75204.13;;;12.99;94.93
46946;BME280;32679;40.810;14.498;2023-12-28T11:20:05;75219.69;;;13.13;97.20
46946;BME280;32679;40.810;14.498;2023-12-28T11:22:33;75196.94;;;12.93;97.18
46946;BME280;32679;40.810;14.498;2023-12-28T11:24:59;75209.72;;;13.06;98.50
46946;BME280;32679;40.810;14.498;2023-12-28T11:27:25;75211.31;;;13.05;98.13
46946;BME280;32679;40.810;14.498;2023-12-28T11:29:58;75202.91;;;12.98;98.60
46946;BME280;32679;40.810;14.498;2023-12-28T11:32:33;75200.97;;;13.01;98.44
46946;BME280;32679;40.810;14.498;2023-12-28T11:35:00;75219.69;;;13.13;98.64
46946;BME280;32679;40.810;14.498;2023-12-28T11:37:27;75215.72;;;13.11;98.25
46946;BME280;32679;40.810;14.498;2023-12-28T11:39:54;75212.94;;;13.11;98.88
46946;BME280;32679;40.810;14.498;2023-12-28T11:42:23;75197.53;;;12.94;98.82
46946;BME280;32679;40.810;14.498;2023-12-28T11:44:55;75202.56;;;13.00;98.74
46946;BME280;32679;40.810;14.498;2023-12-28T11:47:36;75206.53;;;13.01;99.21
46946;BME280;32679;40.810;14.498;2023-12-28T11:50:09;75185.41;;;12.88;99.04
46946;BME280;32679;40.810;14.498;2023-12-28T11:52:34;75214.88;;;13.08;98.71
46946;BME280;32679;40.810;14.498;2023-12-28T11:55:04;75184.97;;;12.83;94.26
46946;BME280;32679;40.810;14.498;2023-12-28T11:57:37;75178.22;;;12.82;92.62
46946;BME280;32679;40.810;14.498;2023-12-28T12:00:10;75211.31;;;13.05;91.20
46946;BME280;32679;40.810;14.498;2023-12-28T12:02:35;75200.75;;;12.99;90.06
46946;BME280;32679;40.810;14.498;2023-12-28T12:05:01;75196.34;;;12.93;89.60
46946;BME280;32679;40.810;14.498;2023-12-28T12:07:27;75185.78;;;12.86;89.86
46946;BME280;32679;40.810;14.498;2023-12-28T12:09:59;75214.53;;;13.10;90.04
46946;BME280;32679;40.810;14.498;2023-12-28T12:12:26;75189.31;;;12.82;90.93
46946;BME280;32679;40.810;14.498;2023-12-28T12:14:51;75189.16;;;12.87;89.44
46946;BME280;32679;40.810;14.498;2023-12-28T12:17:18;75196.19;;;12.97;89.71
46946;BME280;32679;40.810;14.498;2023-12-28T12:19:44;75180.41;;;12.81;90.13
46946;BME280;32679;40.810;14.498;2023-12-28T12:22:17;75211.31;;;13.05;91.10
46946;BME280;32679;40.810;14.498;2023-12-28T12:24:47;75195.59;;;12.97;89.97
46946;BME280;32679;40.810;14.498;2023-12-28T12:27:16;75174.22;;;12.74;89.71
46946;BME280;32679;40.810;14.498;2023-12-28T12:29:44;75192.59;;;12.94;90.80
46946;BME280;32679;40.810;14.498;2023-12-28T12:32:11;75163.66;;;12.67;89.79
46946;BME280;32679;40.810;14.498;2023-12-28T12:34:38;75190.00;;;12.90;90.74
46946;BME280;32679;40.810;14.498;2023-12-28T12:37:06;75177.25;;;12.83;90.35
46946;BME280;32679;40.810;14.498;2023-12-28T12:39:31;75199.34;;;12.95;91.27
46946;BME280;32679;40.810;14.498;2023-12-28T12:41:57;75187.00;;;12.87;91.10
46946;BME280;32679;40.810;14.498;2023-12-28T12:44:24;75158.66;;;12.61;91.97
46946;BME280;32679;40.810;14.498;2023-12-28T12:46:59;75173.63;;;12.73;90.92
46946;BME280;32679;40.810;14.498;2023-12-28T12:49:25;75206.13;;;13.03;91.90
46946;BME280;32679;40.810;14.498;2023-12-28T12:51:54;75192.97;;;12.92;91.62
46946;BME280;32679;40.810;14.498;2023-12-28T12:54:19;75184.38;;;12.82;92.17